sensor_id;sensor_type;location;lat;lon;timestamp;temperature;humidity
3648;DHT22;1840;48.892;15.312;2023-08-06T00:00:27;12.90;99.90
3648;DHT22;1840;48.892;15.312;2023-08-06T00:02:55;12.70;99.90
3648;DHT22;1840;48.892;15.312;2023-08-06T00:05:24;12.60;99.90
3648;DHT22;1840;48.892;15.312;2023-08-06T00:07:52;12.60;99.90
3648;DHT22;1840;48.892;15.312;2023-08-06T00:10:21;12.60;99.90
3648;DHT22;1840;48.892;15.312;2023-08-06T00:12:49;12.60;99.90
3648;DHT22;1840;48.892;15.312;2023-08-06T00:15:17;12.60;99.90
3648;DHT22;1840;48.892;15.312;2023-08-06T00:17:46;12.40;99.90
3648;DHT22;1840;48.892;15.312;2023-08-06T00:20:14;12.40;99.90
3648;DHT22;1840;48.892;15.312;2023-08-06T00:22:43;12.50;99.90
3648;DHT22;1840;48.892;15.312;2023-08-06T00:25:11;12.60;99.90
3648;DHT22;1840;48.892;15.312;2023-08-06T00:27:39;12.50;99.90
3648;DHT22;1840;48.892;15.312;2023-08-06T00:30:07;12.50;99.90
3648;DHT22;1840;48.892;15.312;2023-08-06T00:32:36;12.60;99.90
3648;DHT22;1840;48.892;15.312;2023-08-06T00:35:04;12.60;99.90
3648;DHT22;1840;48.892;15.312;2023-08-06T00:37:33;12.50;99.90
3648;DHT22;1840;48.892;15.312;2023-08-06T00:40:02;12.50;99.90
3648;DHT22;1840;48.892;15.312;2023-08-06T00:42:30;12.60;99.90
3648;DHT22;1840;48.892;15.312;2023-08-06T00:44:58;12.50;99.90
3648;DHT22;1840;48.892;15.312;2023-08-06T00:47:27;12.50;99.90
3648;DHT22;1840;48.892;15.312;2023-08-06T00:49:55;12.40;99.90
3648;DHT22;1840;48.892;15.312;2023-08-06T00:52:23;12.30;99.90
3648;DHT22;1840;48.892;15.312;2023-08-06T00:54:51;12.20;99.90
3648;DHT22;1840;48.892;15.312;2023-08-06T00:57:24;12.20;99.90
3648;DHT22;1840;48.892;15.312;2023-08-06T00:59:54;12.30;99.90
3648;DHT22;1840;48.892;15.312;2023-08-06T01:02:22;12.30;99.90
3648;DHT22;1840;48.892;15.312;2023-08-06T01:04:50;12.50;99.90
3648;DHT22;1840;48.892;15.312;2023-08-06T01:07:25;12.60;99.90
3648;DHT22;1840;48.892;15.312;2023-08-06T01:10:01;12.60;99.90
3648;DHT22;1840;48.892;15.312;2023-08-06T01:12:43;12.50;99.90
3648;DHT22;1840;48.892;15.312;2023-08-06T01:15:16;12.40;99.90
3648;DHT22;1840;48.892;15.312;2023-08-06T01:17:46;12.40;99.90
3648;DHT22;1840;48.892;15.312;2023-08-06T01:20:15;12.50;99.90
3648;DHT22;1840;48.892;15.312;2023-08-06T01:22:44;12.40;99.90
3648;DHT22;1840;48.892;15.312;2023-08-06T01:25:15;12.50;99.90
3648;DHT22;1840;48.892;15.312;2023-08-06T01:27:47;12.50;99.90
3648;DHT22;1840;48.892;15.312;2023-08-06T01:30:17;12.20;99.90
3648;DHT22;1840;48.892;15.312;2023-08-06T01:32:49;12.10;99.90
3648;DHT22;1840;48.892;15.312;2023-08-06T01:35:19;12.20;99.90
3648;DHT22;1840;48.892;15.312;2023-08-06T01:37:49;12.30;99.90
3648;DHT22;1840;48.892;15.312;2023-08-06T01:40:17;12.40;99.90
3648;DHT22;1840;48.892;15.312;2023-08-06T01:42:45;12.30;99.90
3648;DHT22;1840;48.892;15.312;2023-08-06T01:45:13;12.30;99.90
3648;DHT22;1840;48.892;15.312;2023-08-06T01:47:41;12.20;99.90
3648;DHT22;1840;48.892;15.312;2023-08-06T01:50:10;12.20;99.90
3648;DHT22;1840;48.892;15.312;2023-08-06T01:52:38;12.30;99.90
3648;DHT22;1840;48.892;15.312;2023-08-06T01:55:08;12.20;99.90
3648;DHT22;1840;48.892;15.312;2023-08-06T01:57:36;12.10;99.90
3648;DHT22;1840;48.892;15.312;2023-08-06T02:00:08;12.10;99.90
3648;DHT22;1840;48.892;15.312;2023-08-06T02:02:36;12.10;99.90
3648;DHT22;1840;48.892;15.312;2023-08-06T02:05:04;12.00;99.90
3648;DHT22;1840;48.892;15.312;2023-08-06T02:07:33;12.10;99.90
3648;DHT22;1840;48.892;15.312;2023-08-06T02:10:01;12.20;99.90
3648;DHT22;1840;48.892;15.312;2023-08-06T02:12:30;12.00;99.90
3648;DHT22;1840;48.892;15.312;2023-08-06T02:14:58;12.00;99.90
3648;DHT22;1840;48.892;15.312;2023-08-06T02:17:26;12.00;99.90
3648;DHT22;1840;48.892;15.312;2023-08-06T02:19:54;12.10;99.90
3648;DHT22;1840;48.892;15.312;2023-08-06T02:22:22;12.00;99.90
3648;DHT22;1840;48.892;15.312;2023-08-06T02:24:51;12.00;99.90
3648;DHT22;1840;48.892;15.312;2023-08-06T02:27:19;12.10;99.90
3648;DHT22;1840;48.892;15.312;2023-08-06T02:29:48;12.10;99.90
3648;DHT22;1840;48.892;15.312;2023-08-06T02:32:16;12.00;99.90
3648;DHT22;1840;48.892;15.312;2023-08-06T02:34:45;12.00;99.90
3648;DHT22;1840;48.892;15.312;2023-08-06T02:37:13;12.10;99.90
3648;DHT22;1840;48.892;15.312;2023-08-06T02:39:41;12.30;99.90
3648;DHT22;1840;48.892;15.312;2023-08-06T02:42:09;12.20;99.90
3648;DHT22;1840;48.892;15.312;2023-08-06T02:44:38;12.20;99.90
3648;DHT22;1840;48.892;15.312;2023-08-06T02:47:07;12.20;99.90
3648;DHT22;1840;48.892;15.312;2023-08-06T02:49:35;12.10;99.90
3648;DHT22;1840;48.892;15.312;2023-08-06T02:52:04;12.10;99.90
3648;DHT22;1840;48.892;15.312;2023-08-06T02:54:32;12.00;99.90
3648;DHT22;1840;48.892;15.312;2023-08-06T02:57:00;12.10;99.90
3648;DHT22;1840;48.892;15.312;2023-08-06T02:59:28;12.20;99.90
3648;DHT22;1840;48.892;15.312;2023-08-06T03:01:56;12.10;99.90
3648;DHT22;1840;48.892;15.312;2023-08-06T03:04:26;12.10;99.90
3648;DHT22;1840;48.892;15.312;2023-08-06T03:06:54;12.20;99.90
3648;DHT22;1840;48.892;15.312;2023-08-06T03:09:22;12.10;99.90
3648;DHT22;1840;48.892;15.312;2023-08-06T03:11:51;12.10;99.90
3648;DHT22;1840;48.892;15.312;2023-08-06T03:14:19;12.10;99.90
3648;DHT22;1840;48.892;15.312;2023-08-06T03:16:47;12.10;99.90
3648;DHT22;1840;48.892;15.312;2023-08-06T03:19:15;11.90;99.90
3648;DHT22;1840;48.892;15.312;2023-08-06T03:21:45;12.00;99.90
3648;DHT22;1840;48.892;15.312;2023-08-06T03:24:13;11.90;99.90
3648;DHT22;1840;48.892;15.312;2023-08-06T03:26:41;12.00;99.90
3648;DHT22;1840;48.892;15.312;2023-08-06T03:29:09;12.00;99.90
3648;DHT22;1840;48.892;15.312;2023-08-06T03:31:37;12.00;99.90
3648;DHT22;1840;48.892;15.312;2023-08-06T03:34:06;11.90;99.90
3648;DHT22;1840;48.892;15.312;2023-08-06T03:36:34;11.80;99.90
3648;DHT22;1840;48.892;15.312;2023-08-06T03:39:04;11.70;99.90
3648;DHT22;1840;48.892;15.312;2023-08-06T03:41:32;11.80;99.90
3648;DHT22;1840;48.892;15.312;2023-08-06T03:44:00;11.80;99.90
3648;DHT22;1840;48.892;15.312;2023-08-06T03:46:30;11.80;99.90
3648;DHT22;1840;48.892;15.312;2023-08-06T03:49:00;11.80;99.90
3648;DHT22;1840;48.892;15.312;2023-08-06T03:51:29;12.00;99.90
3648;DHT22;1840;48.892;15.312;2023-08-06T03:53:57;12.00;99.90
3648;DHT22;1840;48.892;15.312;2023-08-06T03:56:26;12.00;99.90
3648;DHT22;1840;48.892;15.312;2023-08-06T03:58:54;11.80;99.90
3648;DHT22;1840;48.892;15.312;2023-08-06T04:01:22;11.90;99.90
3648;DHT22;1840;48.892;15.312;2023-08-06T04:03:50;11.90;99.90
3648;DHT22;1840;48.892;15.312;2023-08-06T04:06:19;11.90;99.90
3648;DHT22;1840;48.892;15.312;2023-08-06T04:08:47;11.90;99.90
3648;DHT22;1840;48.892;15.312;2023-08-06T04:11:15;11.80;99.90
3648;DHT22;1840;48.892;15.312;2023-08-06T04:13:44;11.90;99.90
3648;DHT22;1840;48.892;15.312;2023-08-06T04:16:13;11.70;99.90
3648;DHT22;1840;48.892;15.312;2023-08-06T04:18:41;11.80;99.90
3648;DHT22;1840;48.892;15.312;2023-08-06T04:21:09;11.90;99.90
3648;DHT22;1840;48.892;15.312;2023-08-06T04:23:38;11.80;99.90
3648;DHT22;1840;48.892;15.312;2023-08-06T04:26:06;11.90;99.90
3648;DHT22;1840;48.892;15.312;2023-08-06T04:28:34;11.90;99.90
3648;DHT22;1840;48.892;15.312;2023-08-06T04:31:03;11.90;99.90
3648;DHT22;1840;48.892;15.312;2023-08-06T04:33:31;11.90;99.90
3648;DHT22;1840;48.892;15.312;2023-08-06T04:35:59;11.90;99.90
3648;DHT22;1840;48.892;15.312;2023-08-06T04:38:28;11.80;99.90
3648;DHT22;1840;48.892;15.312;2023-08-06T04:40:56;11.90;99.90
3648;DHT22;1840;48.892;15.312;2023-08-06T04:43:24;11.80;99.90
3648;DHT22;1840;48.892;15.312;2023-08-06T04:45:54;11.80;99.90
3648;DHT22;1840;48.892;15.312;2023-08-06T04:48:24;11.80;99.90
3648;DHT22;1840;48.892;15.312;2023-08-06T04:50:52;11.90;99.90
3648;DHT22;1840;48.892;15.312;2023-08-06T04:53:21;11.70;99.90
3648;DHT22;1840;48.892;15.312;2023-08-06T04:55:49;11.90;99.90
3648;DHT22;1840;48.892;15.312;2023-08-06T04:58:17;12.00;99.90
3648;DHT22;1840;48.892;15.312;2023-08-06T05:00:46;12.10;99.90
3648;DHT22;1840;48.892;15.312;2023-08-06T05:03:14;12.10;99.90
3648;DHT22;1840;48.892;15.312;2023-08-06T05:05:46;12.10;99.90
3648;DHT22;1840;48.892;15.312;2023-08-06T05:08:14;12.00;99.90
3648;DHT22;1840;48.892;15.312;2023-08-06T05:10:44;12.00;99.90
3648;DHT22;1840;48.892;15.312;2023-08-06T05:13:12;12.00;99.90
3648;DHT22;1840;48.892;15.312;2023-08-06T05:15:41;12.00;99.90
3648;DHT22;1840;48.892;15.312;2023-08-06T05:18:12;12.00;99.90
3648;DHT22;1840;48.892;15.312;2023-08-06T05:20:41;12.00;99.90
3648;DHT22;1840;48.892;15.312;2023-08-06T05:23:11;11.90;99.90
3648;DHT22;1840;48.892;15.312;2023-08-06T05:25:40;11.90;99.90
3648;DHT22;1840;48.892;15.312;2023-08-06T05:28:08;12.00;99.90
3648;DHT22;1840;48.892;15.312;2023-08-06T05:30:39;12.00;99.90
3648;DHT22;1840;48.892;15.312;2023-08-06T05:33:07;12.10;99.90
3648;DHT22;1840;48.892;15.312;2023-08-06T05:35:35;12.00;99.90
3648;DHT22;1840;48.892;15.312;2023-08-06T05:38:03;12.10;99.90
3648;DHT22;1840;48.892;15.312;2023-08-06T05:40:34;12.10;99.90
3648;DHT22;1840;48.892;15.312;2023-08-06T05:43:02;12.10;99.90
3648;DHT22;1840;48.892;15.312;2023-08-06T05:45:31;12.20;99.90
3648;DHT22;1840;48.892;15.312;2023-08-06T05:47:59;12.30;99.90
3648;DHT22;1840;48.892;15.312;2023-08-06T05:50:27;12.30;99.90
3648;DHT22;1840;48.892;15.312;2023-08-06T05:52:55;12.00;99.90
3648;DHT22;1840;48.892;15.312;2023-08-06T05:55:27;12.10;99.90
3648;DHT22;1840;48.892;15.312;2023-08-06T05:57:57;12.10;99.90
3648;DHT22;1840;48.892;15.312;2023-08-06T06:00:25;12.20;99.90
3648;DHT22;1840;48.892;15.312;2023-08-06T06:02:53;12.20;99.90
3648;DHT22;1840;48.892;15.312;2023-08-06T06:05:21;12.20;99.90
3648;DHT22;1840;48.892;15.312;2023-08-06T06:07:49;12.30;99.90
3648;DHT22;1840;48.892;15.312;2023-08-06T06:10:17;12.40;99.90
3648;DHT22;1840;48.892;15.312;2023-08-06T06:12:45;12.50;99.90
3648;DHT22;1840;48.892;15.312;2023-08-06T06:15:15;12.60;99.90
3648;DHT22;1840;48.892;15.312;2023-08-06T06:17:43;12.60;99.90
3648;DHT22;1840;48.892;15.312;2023-08-06T06:20:11;12.50;99.90
3648;DHT22;1840;48.892;15.312;2023-08-06T06:22:39;12.40;99.90
3648;DHT22;1840;48.892;15.312;2023-08-06T06:25:07;12.40;99.90
3648;DHT22;1840;48.892;15.312;2023-08-06T06:27:36;12.50;99.90
3648;DHT22;1840;48.892;15.312;2023-08-06T06:30:06;12.50;99.90
3648;DHT22;1840;48.892;15.312;2023-08-06T06:32:35;12.50;99.90
3648;DHT22;1840;48.892;15.312;2023-08-06T06:35:04;12.50;99.90
3648;DHT22;1840;48.892;15.312;2023-08-06T06:37:33;12.40;99.90
3648;DHT22;1840;48.892;15.312;2023-08-06T06:40:02;12.50;99.90
3648;DHT22;1840;48.892;15.312;2023-08-06T06:42:30;12.60;99.90
3648;DHT22;1840;48.892;15.312;2023-08-06T06:44:59;12.60;99.90
3648;DHT22;1840;48.892;15.312;2023-08-06T06:47:27;12.60;99.90
3648;DHT22;1840;48.892;15.312;2023-08-06T06:49:56;12.80;99.90
3648;DHT22;1840;48.892;15.312;2023-08-06T06:52:24;12.90;99.90
3648;DHT22;1840;48.892;15.312;2023-08-06T06:54:54;12.70;99.90
3648;DHT22;1840;48.892;15.312;2023-08-06T06:57:22;12.50;99.90
3648;DHT22;1840;48.892;15.312;2023-08-06T06:59:50;12.60;99.90
3648;DHT22;1840;48.892;15.312;2023-08-06T07:02:18;12.80;99.90
3648;DHT22;1840;48.892;15.312;2023-08-06T07:04:46;12.80;99.90
3648;DHT22;1840;48.892;15.312;2023-08-06T07:07:16;12.80;99.90
3648;DHT22;1840;48.892;15.312;2023-08-06T07:09:44;12.80;99.90
3648;DHT22;1840;48.892;15.312;2023-08-06T07:12:12;12.80;99.90
3648;DHT22;1840;48.892;15.312;2023-08-06T07:14:40;12.90;99.90
3648;DHT22;1840;48.892;15.312;2023-08-06T07:17:08;13.00;99.90
3648;DHT22;1840;48.892;15.312;2023-08-06T07:19:36;13.00;99.90
3648;DHT22;1840;48.892;15.312;2023-08-06T07:22:05;13.10;99.90
3648;DHT22;1840;48.892;15.312;2023-08-06T07:24:35;13.00;99.90
3648;DHT22;1840;48.892;15.312;2023-08-06T07:27:04;12.90;99.90
3648;DHT22;1840;48.892;15.312;2023-08-06T07:29:32;12.80;99.90
3648;DHT22;1840;48.892;15.312;2023-08-06T07:32:00;12.70;99.90
3648;DHT22;1840;48.892;15.312;2023-08-06T07:34:28;12.60;99.90
3648;DHT22;1840;48.892;15.312;2023-08-06T07:36:56;12.40;99.90
3648;DHT22;1840;48.892;15.312;2023-08-06T07:39:25;12.40;99.90
3648;DHT22;1840;48.892;15.312;2023-08-06T07:41:56;12.30;99.90
3648;DHT22;1840;48.892;15.312;2023-08-06T07:44:24;12.30;99.90
3648;DHT22;1840;48.892;15.312;2023-08-06T07:46:52;12.40;99.90
3648;DHT22;1840;48.892;15.312;2023-08-06T07:49:21;12.60;99.90
3648;DHT22;1840;48.892;15.312;2023-08-06T07:51:49;12.50;99.90
3648;DHT22;1840;48.892;15.312;2023-08-06T07:54:18;12.50;99.90
3648;DHT22;1840;48.892;15.312;2023-08-06T07:56:47;12.40;99.90
3648;DHT22;1840;48.892;15.312;2023-08-06T07:59:16;12.40;99.90
3648;DHT22;1840;48.892;15.312;2023-08-06T08:01:44;12.50;99.90
3648;DHT22;1840;48.892;15.312;2023-08-06T08:04:12;12.50;99.90
3648;DHT22;1840;48.892;15.312;2023-08-06T08:06:41;12.50;99.90
3648;DHT22;1840;48.892;15.312;2023-08-06T08:09:09;12.50;99.90
3648;DHT22;1840;48.892;15.312;2023-08-06T08:11:37;12.50;99.90
3648;DHT22;1840;48.892;15.312;2023-08-06T08:14:05;12.50;99.90
3648;DHT22;1840;48.892;15.312;2023-08-06T08:16:35;12.60;99.90
3648;DHT22;1840;48.892;15.312;2023-08-06T08:19:03;12.50;99.90
3648;DHT22;1840;48.892;15.312;2023-08-06T08:21:31;12.50;99.90
3648;DHT22;1840;48.892;15.312;2023-08-06T08:24:00;12.60;99.90
3648;DHT22;1840;48.892;15.312;2023-08-06T08:26:28;12.60;99.90
3648;DHT22;1840;48.892;15.312;2023-08-06T08:28:57;12.50;99.90
3648;DHT22;1840;48.892;15.312;2023-08-06T08:31:25;12.40;99.90
3648;DHT22;1840;48.892;15.312;2023-08-06T08:33:55;12.30;99.90
3648;DHT22;1840;48.892;15.312;2023-08-06T08:36:26;12.40;99.90
3648;DHT22;1840;48.892;15.312;2023-08-06T08:38:54;12.50;99.90
3648;DHT22;1840;48.892;15.312;2023-08-06T08:41:23;12.40;99.90
3648;DHT22;1840;48.892;15.312;2023-08-06T08:43:51;12.30;99.90
3648;DHT22;1840;48.892;15.312;2023-08-06T08:46:20;12.40;99.90
3648;DHT22;1840;48.892;15.312;2023-08-06T08:48:48;12.40;99.90
3648;DHT22;1840;48.892;15.312;2023-08-06T08:51:19;12.40;99.90
3648;DHT22;1840;48.892;15.312;2023-08-06T08:53:48;12.50;99.90
3648;DHT22;1840;48.892;15.312;2023-08-06T08:56:18;12.50;99.90
3648;DHT22;1840;48.892;15.312;2023-08-06T08:58:47;12.50;99.90
3648;DHT22;1840;48.892;15.312;2023-08-06T09:01:18;12.50;99.90
3648;DHT22;1840;48.892;15.312;2023-08-06T09:03:47;12.60;99.90
3648;DHT22;1840;48.892;15.312;2023-08-06T09:06:15;12.60;99.90
3648;DHT22;1840;48.892;15.312;2023-08-06T09:08:51;12.40;99.90
3648;DHT22;1840;48.892;15.312;2023-08-06T09:11:22;12.20;99.90
3648;DHT22;1840;48.892;15.312;2023-08-06T09:13:51;12.40;99.90
3648;DHT22;1840;48.892;15.312;2023-08-06T09:16:20;12.30;99.90
3648;DHT22;1840;48.892;15.312;2023-08-06T09:18:49;12.10;99.90
3648;DHT22;1840;48.892;15.312;2023-08-06T09:21:17;12.10;99.90
3648;DHT22;1840;48.892;15.312;2023-08-06T09:23:45;12.20;99.90
3648;DHT22;1840;48.892;15.312;2023-08-06T09:26:14;12.10;99.90
3648;DHT22;1840;48.892;15.312;2023-08-06T09:28:42;12.10;99.90
3648;DHT22;1840;48.892;15.312;2023-08-06T09:31:11;12.40;99.90
3648;DHT22;1840;48.892;15.312;2023-08-06T09:33:39;12.50;99.90
3648;DHT22;1840;48.892;15.312;2023-08-06T09:36:10;12.60;99.90
3648;DHT22;1840;48.892;15.312;2023-08-06T09:38:39;12.60;99.90
3648;DHT22;1840;48.892;15.312;2023-08-06T09:41:08;12.80;99.90
3648;DHT22;1840;48.892;15.312;2023-08-06T09:43:43;12.80;99.90
3648;DHT22;1840;48.892;15.312;2023-08-06T09:46:12;12.60;99.90
3648;DHT22;1840;48.892;15.312;2023-08-06T09:48:47;12.60;99.90
3648;DHT22;1840;48.892;15.312;2023-08-06T09:51:16;12.80;99.90
3648;DHT22;1840;48.892;15.312;2023-08-06T09:53:47;12.90;99.90
3648;DHT22;1840;48.892;15.312;2023-08-06T09:56:17;13.00;99.90
3648;DHT22;1840;48.892;15.312;2023-08-06T09:58:49;13.10;99.90
3648;DHT22;1840;48.892;15.312;2023-08-06T10:01:18;13.10;99.90
3648;DHT22;1840;48.892;15.312;2023-08-06T10:03:47;13.30;99.90
3648;DHT22;1840;48.892;15.312;2023-08-06T10:06:18;13.30;99.90
3648;DHT22;1840;48.892;15.312;2023-08-06T10:08:48;13.30;99.90
3648;DHT22;1840;48.892;15.312;2023-08-06T10:11:17;13.40;99.90
3648;DHT22;1840;48.892;15.312;2023-08-06T10:13:46;13.40;99.90
3648;DHT22;1840;48.892;15.312;2023-08-06T10:16:15;13.40;99.90
3648;DHT22;1840;48.892;15.312;2023-08-06T10:18:44;13.40;99.90
3648;DHT22;1840;48.892;15.312;2023-08-06T10:21:13;13.50;99.90
3648;DHT22;1840;48.892;15.312;2023-08-06T10:23:42;13.60;99.90
3648;DHT22;1840;48.892;15.312;2023-08-06T10:26:10;13.40;99.90
3648;DHT22;1840;48.892;15.312;2023-08-06T10:28:39;13.60;99.90
3648;DHT22;1840;48.892;15.312;2023-08-06T10:31:09;13.60;99.90
3648;DHT22;1840;48.892;15.312;2023-08-06T10:33:44;13.60;99.90
3648;DHT22;1840;48.892;15.312;2023-08-06T10:36:12;13.50;99.90
3648;DHT22;1840;48.892;15.312;2023-08-06T10:38:45;13.50;99.90
3648;DHT22;1840;48.892;15.312;2023-08-06T10:41:22;13.40;99.90
3648;DHT22;1840;48.892;15.312;2023-08-06T10:43:50;13.40;99.90
3648;DHT22;1840;48.892;15.312;2023-08-06T10:46:26;13.40;99.90
3648;DHT22;1840;48.892;15.312;2023-08-06T10:48:54;13.50;99.90
3648;DHT22;1840;48.892;15.312;2023-08-06T10:51:22;13.60;99.90
3648;DHT22;1840;48.892;15.312;2023-08-06T10:53:51;13.70;99.90
3648;DHT22;1840;48.892;15.312;2023-08-06T10:56:21;13.60;99.90
3648;DHT22;1840;48.892;15.312;2023-08-06T10:58:51;13.60;99.90
3648;DHT22;1840;48.892;15.312;2023-08-06T11:01:19;13.40;99.90
3648;DHT22;1840;48.892;15.312;2023-08-06T11:03:51;13.50;99.90
3648;DHT22;1840;48.892;15.312;2023-08-06T11:06:21;13.50;99.90
3648;DHT22;1840;48.892;15.312;2023-08-06T11:08:51;13.50;99.90
3648;DHT22;1840;48.892;15.312;2023-08-06T11:11:21;13.40;99.90
3648;DHT22;1840;48.892;15.312;2023-08-06T11:13:51;13.50;99.90
3648;DHT22;1840;48.892;15.312;2023-08-06T11:16:21;13.60;99.90
3648;DHT22;1840;48.892;15.312;2023-08-06T11:18:53;13.70;99.90
3648;DHT22;1840;48.892;15.312;2023-08-06T11:21:23;13.80;99.90
3648;DHT22;1840;48.892;15.312;2023-08-06T11:23:52;13.70;99.90
3648;DHT22;1840;48.892;15.312;2023-08-06T11:26:21;13.70;99.90
3648;DHT22;1840;48.892;15.312;2023-08-06T11:28:51;13.50;99.90
3648;DHT22;1840;48.892;15.312;2023-08-06T11:31:19;13.60;99.90
3648;DHT22;1840;48.892;15.312;2023-08-06T11:33:48;13.70;99.90
3648;DHT22;1840;48.892;15.312;2023-08-06T11:36:28;13.80;99.90
3648;DHT22;1840;48.892;15.312;2023-08-06T11:38:57;14.00;99.90
3648;DHT22;1840;48.892;15.312;2023-08-06T11:41:25;14.10;99.90
3648;DHT22;1840;48.892;15.312;2023-08-06T11:43:55;14.10;99.90
3648;DHT22;1840;48.892;15.312;2023-08-06T11:46:23;14.20;99.90
3648;DHT22;1840;48.892;15.312;2023-08-06T11:48:53;14.20;99.90
3648;DHT22;1840;48.892;15.312;2023-08-06T11:51:24;14.20;99.90
3648;DHT22;1840;48.892;15.312;2023-08-06T11:53:55;14.30;99.90
3648;DHT22;1840;48.892;15.312;2023-08-06T11:56:24;14.20;99.90
3648;DHT22;1840;48.892;15.312;2023-08-06T11:58:54;14.00;99.90
3648;DHT22;1840;48.892;15.312;2023-08-06T12:01:23;13.90;99.90
3648;DHT22;1840;48.892;15.312;2023-08-06T12:03:51;14.00;99.90
3648;DHT22;1840;48.892;15.312;2023-08-06T12:06:21;13.90;99.90
3648;DHT22;1840;48.892;15.312;2023-08-06T12:08:51;13.90;99.90
3648;DHT22;1840;48.892;15.312;2023-08-06T12:11:21;13.90;99.90
3648;DHT22;1840;48.892;15.312;2023-08-06T12:13:51;14.00;99.90
3648;DHT22;1840;48.892;15.312;2023-08-06T12:16:19;14.10;99.90
3648;DHT22;1840;48.892;15.312;2023-08-06T12:18:48;14.00;99.90
3648;DHT22;1840;48.892;15.312;2023-08-06T12:21:17;14.00;99.90
3648;DHT22;1840;48.892;15.312;2023-08-06T12:23:45;14.10;99.90
3648;DHT22;1840;48.892;15.312;2023-08-06T12:26:14;14.20;99.90
3648;DHT22;1840;48.892;15.312;2023-08-06T12:28:42;14.20;99.90
3648;DHT22;1840;48.892;15.312;2023-08-06T12:31:10;14.20;99.90
3648;DHT22;1840;48.892;15.312;2023-08-06T12:33:39;14.20;99.90
3648;DHT22;1840;48.892;15.312;2023-08-06T12:36:07;14.30;99.90
3648;DHT22;1840;48.892;15.312;2023-08-06T12:38:35;14.20;99.90
3648;DHT22;1840;48.892;15.312;2023-08-06T12:41:03;14.20;99.90
3648;DHT22;1840;48.892;15.312;2023-08-06T12:43:32;14.20;99.90
3648;DHT22;1840;48.892;15.312;2023-08-06T12:46:00;14.30;99.90
3648;DHT22;1840;48.892;15.312;2023-08-06T12:48:30;14.40;99.90
3648;DHT22;1840;48.892;15.312;2023-08-06T12:50:58;14.40;99.90
3648;DHT22;1840;48.892;15.312;2023-08-06T12:53:26;14.60;99.90
3648;DHT22;1840;48.892;15.312;2023-08-06T12:55:54;14.60;99.90
3648;DHT22;1840;48.892;15.312;2023-08-06T12:58:22;14.50;99.90
3648;DHT22;1840;48.892;15.312;2023-08-06T13:00:52;14.50;99.90
3648;DHT22;1840;48.892;15.312;2023-08-06T13:03:21;14.50;99.90
3648;DHT22;1840;48.892;15.312;2023-08-06T13:05:50;14.50;99.90
3648;DHT22;1840;48.892;15.312;2023-08-06T13:08:18;14.50;99.90
3648;DHT22;1840;48.892;15.312;2023-08-06T13:10:46;14.70;99.90
3648;DHT22;1840;48.892;15.312;2023-08-06T13:13:14;14.80;99.90
3648;DHT22;1840;48.892;15.312;2023-08-06T13:15:42;14.80;99.90
3648;DHT22;1840;48.892;15.312;2023-08-06T13:18:12;15.00;99.90
3648;DHT22;1840;48.892;15.312;2023-08-06T13:20:40;15.20;99.90
3648;DHT22;1840;48.892;15.312;2023-08-06T13:23:09;14.90;99.90
3648;DHT22;1840;48.892;15.312;2023-08-06T13:25:38;14.90;99.90
3648;DHT22;1840;48.892;15.312;2023-08-06T13:28:06;15.10;99.90
3648;DHT22;1840;48.892;15.312;2023-08-06T13:30:36;15.10;99.90
3648;DHT22;1840;48.892;15.312;2023-08-06T13:33:09;15.20;99.90
3648;DHT22;1840;48.892;15.312;2023-08-06T13:35:39;15.30;99.90
3648;DHT22;1840;48.892;15.312;2023-08-06T13:38:07;15.40;99.90
3648;DHT22;1840;48.892;15.312;2023-08-06T13:40:35;15.30;99.90
3648;DHT22;1840;48.892;15.312;2023-08-06T13:43:03;15.50;99.70
3648;DHT22;1840;48.892;15.312;2023-08-06T13:45:32;15.40;99.60
3648;DHT22;1840;48.892;15.312;2023-08-06T13:48:01;15.50;99.70
3648;DHT22;1840;48.892;15.312;2023-08-06T13:50:30;15.30;99.00
3648;DHT22;1840;48.892;15.312;2023-08-06T13:53:00;15.50;99.30
3648;DHT22;1840;48.892;15.312;2023-08-06T13:55:29;15.50;99.50
3648;DHT22;1840;48.892;15.312;2023-08-06T13:57:57;15.50;99.10
3648;DHT22;1840;48.892;15.312;2023-08-06T14:00:25;15.50;99.20
3648;DHT22;1840;48.892;15.312;2023-08-06T14:02:54;15.30;98.90
3648;DHT22;1840;48.892;15.312;2023-08-06T14:05:22;15.30;99.30
3648;DHT22;1840;48.892;15.312;2023-08-06T14:07:50;15.40;99.30
3648;DHT22;1840;48.892;15.312;2023-08-06T14:10:20;15.50;99.40
3648;DHT22;1840;48.892;15.312;2023-08-06T14:12:48;15.60;99.40
3648;DHT22;1840;48.892;15.312;2023-08-06T14:15:31;15.50;99.30
3648;DHT22;1840;48.892;15.312;2023-08-06T14:18:00;15.00;98.30
3648;DHT22;1840;48.892;15.312;2023-08-06T14:20:28;14.40;98.10
3648;DHT22;1840;48.892;15.312;2023-08-06T14:22:57;13.80;98.70
3648;DHT22;1840;48.892;15.312;2023-08-06T14:25:27;13.60;99.40
3648;DHT22;1840;48.892;15.312;2023-08-06T14:27:55;13.40;99.90
3648;DHT22;1840;48.892;15.312;2023-08-06T14:30:23;13.30;99.90
3648;DHT22;1840;48.892;15.312;2023-08-06T14:32:51;13.40;99.90
3648;DHT22;1840;48.892;15.312;2023-08-06T14:35:19;13.30;99.90
3648;DHT22;1840;48.892;15.312;2023-08-06T14:37:47;13.30;99.90
3648;DHT22;1840;48.892;15.312;2023-08-06T14:40:16;13.30;99.90
3648;DHT22;1840;48.892;15.312;2023-08-06T14:42:45;13.40;99.90
3648;DHT22;1840;48.892;15.312;2023-08-06T14:45:13;13.50;99.90
3648;DHT22;1840;48.892;15.312;2023-08-06T14:47:42;13.50;99.90
3648;DHT22;1840;48.892;15.312;2023-08-06T14:50:10;13.60;99.90
3648;DHT22;1840;48.892;15.312;2023-08-06T14:52:38;13.70;99.90
3648;DHT22;1840;48.892;15.312;2023-08-06T14:55:07;13.80;99.90
3648;DHT22;1840;48.892;15.312;2023-08-06T14:57:35;13.70;99.90
3648;DHT22;1840;48.892;15.312;2023-08-06T15:00:06;13.80;99.90
3648;DHT22;1840;48.892;15.312;2023-08-06T15:02:37;13.70;99.90
3648;DHT22;1840;48.892;15.312;2023-08-06T15:05:05;13.80;99.90
3648;DHT22;1840;48.892;15.312;2023-08-06T15:07:34;13.70;99.90
3648;DHT22;1840;48.892;15.312;2023-08-06T15:10:05;13.70;99.90
3648;DHT22;1840;48.892;15.312;2023-08-06T15:12:52;13.70;99.90
3648;DHT22;1840;48.892;15.312;2023-08-06T15:15:22;13.70;99.90
3648;DHT22;1840;48.892;15.312;2023-08-06T15:17:51;13.80;99.90
3648;DHT22;1840;48.892;15.312;2023-08-06T15:20:20;13.90;99.90
3648;DHT22;1840;48.892;15.312;2023-08-06T15:22:48;13.90;99.90
3648;DHT22;1840;48.892;15.312;2023-08-06T15:25:16;14.20;99.90
3648;DHT22;1840;48.892;15.312;2023-08-06T15:27:44;14.30;99.90
3648;DHT22;1840;48.892;15.312;2023-08-06T15:30:12;13.90;99.90
3648;DHT22;1840;48.892;15.312;2023-08-06T15:32:41;14.00;99.90
3648;DHT22;1840;48.892;15.312;2023-08-06T15:35:11;14.30;99.90
3648;DHT22;1840;48.892;15.312;2023-08-06T15:37:39;14.40;99.90
3648;DHT22;1840;48.892;15.312;2023-08-06T15:40:09;14.60;99.90
3648;DHT22;1840;48.892;15.312;2023-08-06T15:42:37;14.60;99.90
3648;DHT22;1840;48.892;15.312;2023-08-06T15:45:06;14.60;99.90
3648;DHT22;1840;48.892;15.312;2023-08-06T15:47:34;14.80;99.90
3648;DHT22;1840;48.892;15.312;2023-08-06T15:50:08;14.80;99.90
3648;DHT22;1840;48.892;15.312;2023-08-06T15:52:37;14.80;99.90
3648;DHT22;1840;48.892;15.312;2023-08-06T15:55:05;14.80;99.90